CheckWX is a tool to help pilots better visualize weather data.  It is not intended as a substitute for an official pre-flight weather briefing.

08:45:40 UTC

KASX METAR
John F Kennedy Memorial Airport
Ashland, Wisconsin, USA
Current

53 mins ago

KASX 210753Z AUTO 04005KT 10SM CLR 06/05 A2981 RMK AO2 SLP099 T00610050
Observed
Oct-21 @ 07:53 UTC
Wind
  • 040° at 5 KTS
Visibility
10 SM
Flight Rules
VFR
Cloud Levels
  • Clear skies
Temperature
C / 43°F
Dewpoint
C / 41°F
Humidity
93%
Altimeter
29.81" Hg
Pressure
1009.52 hPa
Previous

2 hours ago

KASX 210653Z AUTO 05003KT 10SM CLR 06/04 A2987 RMK AO2 SLP118 T00560044
Observed
Oct-21 @ 06:53 UTC
Wind
  • 050° at 3 KTS
Visibility
10 SM
Flight Rules
VFR
Cloud Levels
  • Clear skies
Temperature
C / 43°F
Dewpoint
C / 39°F
Humidity
87%
Altimeter
29.87" Hg
Pressure
1011.52 hPa
Previous

2 hours ago

KASX 210625Z AUTO 00000KT 10SM CLR 06/05 A2989 RMK AO2 T00560050
Observed
Oct-21 @ 06:25 UTC
Visibility
10 SM
Flight Rules
VFR
Cloud Levels
  • Clear skies
Temperature
C / 43°F
Dewpoint
C / 41°F
Humidity
93%
Altimeter
29.89" Hg
Pressure
1012.22 hPa